Flight Briefing for CPX823

Departure Arrival
Patrick Air Force Base (KCOF)
Click to view FAA NOTAMS
Grantley Adams International Airport (TBPB)
Click to view FAA NOTAMS
Departure Time Arrival Time
N/A N/A
Aircraft Distance
B757-200SF 1490nm
Departure METAR Arrival METAR
KCOF 192256Z AUTO 14011KT 10SM CLR 23/23 A3014 RMK AO2 SLP211 TBPB 192300Z 09021KT 9999 -SHRA BKN016 BKN038 24/21 Q1015 NOSIG
Suggested Route
TEDAE VENDS BRRGO BR1L GTK L452 BQN RTE4 COY A555 BG


View recent IFR Routes data
Notes
USTRANSCOM CONTRACT FLIGHT

Charts and Procedures

Charts for KCOF
No chart available
Charts for TBPB
No chart available

Ventusky Weather




{"cat":null,"equip":null,"transponder":null,"pbn":"PBN\/","maxpax":null,"oew":"0.0","mzfw":"0.0","mtow":"0.0","mlw":"0.0","maxfuel":"0.0"} DEVELOPMENTAL TEST USE ONLY